sensor_id;sensor_type;location;lat;lon;timestamp;pressure;altitude;pressure_sealevel;temperature;humidity
18509;BME280;9383;50.928;12.116;2022-10-22T00:00:59;98388.09;;;12.49;100.00
18509;BME280;9383;50.928;12.116;2022-10-22T00:03:25;98390.84;;;12.48;100.00
18509;BME280;9383;50.928;12.116;2022-10-22T00:05:52;98401.53;;;12.46;100.00
18509;BME280;9383;50.928;12.116;2022-10-22T00:08:18;98393.72;;;12.43;100.00
18509;BME280;9383;50.928;12.116;2022-10-22T00:10:45;98392.97;;;12.41;100.00
18509;BME280;9383;50.928;12.116;2022-10-22T00:13:12;98398.28;;;12.41;100.00
18509;BME280;9383;50.928;12.116;2022-10-22T00:15:39;98408.97;;;12.40;100.00
18509;BME280;9383;50.928;12.116;2022-10-22T00:18:07;98416.94;;;12.40;100.00
18509;BME280;9383;50.928;12.116;2022-10-22T00:20:33;98415.16;;;12.40;100.00
18509;BME280;9383;50.928;12.116;2022-10-22T00:23:00;98363.72;;;12.06;100.00
18509;BME280;9383;50.928;12.116;2022-10-22T00:25:26;98430.94;;;12.43;100.00
18509;BME280;9383;50.928;12.116;2022-10-22T00:27:53;98428.19;;;12.45;100.00
18509;BME280;9383;50.928;12.116;2022-10-22T00:30:19;98413.88;;;12.47;100.00
18509;BME280;9383;50.928;12.116;2022-10-22T00:32:46;98419.16;;;12.49;100.00
18509;BME280;9383;50.928;12.116;2022-10-22T00:35:12;98419.03;;;12.50;100.00
18509;BME280;9383;50.928;12.116;2022-10-22T00:37:39;98421.63;;;12.52;100.00
18509;BME280;9383;50.928;12.116;2022-10-22T00:40:06;98420.63;;;12.55;100.00
18509;BME280;9383;50.928;12.116;2022-10-22T00:42:33;98421.41;;;12.57;100.00
18509;BME280;9383;50.928;12.116;2022-10-22T00:50:59;98417.63;;;12.61;100.00
18509;BME280;9383;50.928;12.116;2022-10-22T00:53:43;98424.59;;;12.63;100.00
18509;BME280;9383;50.928;12.116;2022-10-22T00:56:11;98420.13;;;12.64;100.00
18509;BME280;9383;50.928;12.116;2022-10-22T00:58:43;98430.69;;;12.65;100.00
18509;BME280;9383;50.928;12.116;2022-10-22T01:01:15;98426.25;;;12.66;100.00
18509;BME280;9383;50.928;12.116;2022-10-22T01:03:43;98411.13;;;12.66;100.00
18509;BME280;9383;50.928;12.116;2022-10-22T01:06:14;98412.09;;;12.65;100.00
18509;BME280;9383;50.928;12.116;2022-10-22T01:11:50;98415.69;;;12.64;100.00
18509;BME280;9383;50.928;12.116;2022-10-22T01:16:58;98415.75;;;12.63;100.00
18509;BME280;9383;50.928;12.116;2022-10-22T01:22:26;98417.63;;;12.61;100.00
18509;BME280;9383;50.928;12.116;2022-10-22T01:25:13;98413.25;;;12.60;100.00
18509;BME280;9383;50.928;12.116;2022-10-22T01:28:22;98419.53;;;12.59;100.00
18509;BME280;9383;50.928;12.116;2022-10-22T01:30:56;98415.16;;;12.58;100.00
18509;BME280;9383;50.928;12.116;2022-10-22T01:33:24;98406.28;;;12.57;100.00
18509;BME280;9383;50.928;12.116;2022-10-22T01:35:52;98408.94;;;12.57;100.00
18509;BME280;9383;50.928;12.116;2022-10-22T01:38:21;98409.06;;;12.56;100.00
18509;BME280;9383;50.928;12.116;2022-10-22T01:40:50;98414.38;;;12.56;100.00
18509;BME280;9383;50.928;12.116;2022-10-22T01:43:17;98405.63;;;12.54;100.00
18509;BME280;9383;50.928;12.116;2022-10-22T01:45:53;98400.31;;;12.54;100.00
18509;BME280;9383;50.928;12.116;2022-10-22T01:48:44;98403.91;;;12.52;100.00
18509;BME280;9383;50.928;12.116;2022-10-22T01:54:14;98414.66;;;12.49;100.00
18509;BME280;9383;50.928;12.116;2022-10-22T01:57:06;98416.47;;;12.49;100.00
18509;BME280;9383;50.928;12.116;2022-10-22T01:59:49;98408.41;;;12.50;100.00
18509;BME280;9383;50.928;12.116;2022-10-22T02:02:28;98404.75;;;12.53;100.00
18509;BME280;9383;50.928;12.116;2022-10-22T02:07:53;98403.63;;;12.57;100.00
18509;BME280;9383;50.928;12.116;2022-10-22T02:10:23;98400.91;;;12.59;100.00
18509;BME280;9383;50.928;12.116;2022-10-22T02:12:52;98399.03;;;12.61;100.00
18509;BME280;9383;50.928;12.116;2022-10-22T02:15:22;98392.75;;;12.62;100.00
18509;BME280;9383;50.928;12.116;2022-10-22T02:17:50;98388.22;;;12.64;100.00
18509;BME280;9383;50.928;12.116;2022-10-22T02:20:23;98391.69;;;12.66;100.00
18509;BME280;9383;50.928;12.116;2022-10-22T02:22:52;98387.13;;;12.68;100.00
18509;BME280;9383;50.928;12.116;2022-10-22T02:25:21;98374.63;;;12.70;100.00
18509;BME280;9383;50.928;12.116;2022-10-22T02:30:52;98370.84;;;12.74;100.00
18509;BME280;9383;50.928;12.116;2022-10-22T02:33:29;98370.69;;;12.77;100.00
18509;BME280;9383;50.928;12.116;2022-10-22T02:35:58;98367.94;;;12.79;100.00
18509;BME280;9383;50.928;12.116;2022-10-22T02:38:27;98358.00;;;12.83;100.00
18509;BME280;9383;50.928;12.116;2022-10-22T02:40:54;98359.72;;;12.84;100.00
18509;BME280;9383;50.928;12.116;2022-10-22T02:43:23;98365.81;;;12.86;100.00
18509;BME280;9383;50.928;12.116;2022-10-22T02:45:50;98365.81;;;12.86;100.00
18509;BME280;9383;50.928;12.116;2022-10-22T02:48:17;98371.91;;;12.88;100.00
18509;BME280;9383;50.928;12.116;2022-10-22T02:50:43;98370.13;;;12.88;100.00
18509;BME280;9383;50.928;12.116;2022-10-22T02:53:10;98363.84;;;12.89;100.00
18509;BME280;9383;50.928;12.116;2022-10-22T02:55:36;98363.84;;;12.89;100.00
18509;BME280;9383;50.928;12.116;2022-10-22T02:58:03;98370.03;;;12.90;100.00
18509;BME280;9383;50.928;12.116;2022-10-22T03:00:29;98379.81;;;12.89;100.00
18509;BME280;9383;50.928;12.116;2022-10-22T03:02:56;98385.13;;;12.89;100.00
18509;BME280;9383;50.928;12.116;2022-10-22T03:05:23;98394.91;;;12.89;100.00
18509;BME280;9383;50.928;12.116;2022-10-22T03:07:49;98406.41;;;12.89;100.00
18509;BME280;9383;50.928;12.116;2022-10-22T03:10:16;98402.81;;;12.90;100.00
18509;BME280;9383;50.928;12.116;2022-10-22T03:12:42;98406.34;;;12.91;100.00
18509;BME280;9383;50.928;12.116;2022-10-22T03:15:09;98408.13;;;12.90;100.00
18509;BME280;9383;50.928;12.116;2022-10-22T03:17:36;98420.50;;;12.91;100.00
18509;BME280;9383;50.928;12.116;2022-10-22T03:20:03;98409.06;;;12.89;100.00
18509;BME280;9383;50.928;12.116;2022-10-22T03:22:31;98416.19;;;12.89;100.00
18509;BME280;9383;50.928;12.116;2022-10-22T03:25:01;98414.47;;;12.88;100.00
18509;BME280;9383;50.928;12.116;2022-10-22T03:27:29;98403.94;;;12.86;100.00
18509;BME280;9383;50.928;12.116;2022-10-22T03:29:56;98401.25;;;12.86;100.00
18509;BME280;9383;50.928;12.116;2022-10-22T03:32:23;98400.38;;;12.86;100.00
18509;BME280;9383;50.928;12.116;2022-10-22T03:34:49;98408.38;;;12.86;100.00
18509;BME280;9383;50.928;12.116;2022-10-22T03:37:16;98411.03;;;12.86;100.00
18509;BME280;9383;50.928;12.116;2022-10-22T03:39:43;98403.06;;;12.86;100.00
18509;BME280;9383;50.928;12.116;2022-10-22T03:42:10;98394.28;;;12.84;100.00
18509;BME280;9383;50.928;12.116;2022-10-22T03:44:39;98388.97;;;12.84;100.00
18509;BME280;9383;50.928;12.116;2022-10-22T03:47:06;98390.88;;;12.82;100.00
18509;BME280;9383;50.928;12.116;2022-10-22T03:49:32;98388.28;;;12.80;100.00
18509;BME280;9383;50.928;12.116;2022-10-22T03:52:06;98392.81;;;12.78;100.00
18509;BME280;9383;50.928;12.116;2022-10-22T03:54:32;98395.56;;;12.76;100.00
18509;BME280;9383;50.928;12.116;2022-10-22T03:56:59;98401.91;;;12.74;100.00
18509;BME280;9383;50.928;12.116;2022-10-22T03:59:25;98397.59;;;12.71;100.00
18509;BME280;9383;50.928;12.116;2022-10-22T04:01:51;98403.94;;;12.69;100.00
18509;BME280;9383;50.928;12.116;2022-10-22T04:04:18;98410.19;;;12.68;100.00
18509;BME280;9383;50.928;12.116;2022-10-22T04:06:45;98408.59;;;12.65;100.00
18509;BME280;9383;50.928;12.116;2022-10-22T04:09:12;98399.91;;;12.61;100.00
18509;BME280;9383;50.928;12.116;2022-10-22T04:11:38;98407.09;;;12.59;100.00
18509;BME280;9383;50.928;12.116;2022-10-22T04:14:05;98417.88;;;12.56;100.00
18509;BME280;9383;50.928;12.116;2022-10-22T04:16:31;98426.00;;;12.53;100.00
18509;BME280;9383;50.928;12.116;2022-10-22T04:18:58;98434.94;;;12.52;100.00
18509;BME280;9383;50.928;12.116;2022-10-22T04:21:25;98440.41;;;12.49;100.00
18509;BME280;9383;50.928;12.116;2022-10-22T04:23:52;98448.44;;;12.47;100.00
18509;BME280;9383;50.928;12.116;2022-10-22T04:26:19;98447.69;;;12.45;100.00
18509;BME280;9383;50.928;12.116;2022-10-22T04:28:48;98454.00;;;12.43;100.00
18509;BME280;9383;50.928;12.116;2022-10-22T04:31:17;98449.72;;;12.40;100.00
18509;BME280;9383;50.928;12.116;2022-10-22T04:33:43;98448.91;;;12.38;100.00
18509;BME280;9383;50.928;12.116;2022-10-22T04:36:16;98447.19;;;12.37;100.00
18509;BME280;9383;50.928;12.116;2022-10-22T04:38:45;98450.78;;;12.36;100.00
18509;BME280;9383;50.928;12.116;2022-10-22T04:41:13;98447.28;;;12.35;100.00
18509;BME280;9383;50.928;12.116;2022-10-22T04:43:41;98444.69;;;12.34;100.00
18509;BME280;9383;50.928;12.116;2022-10-22T04:46:08;98451.81;;;12.33;100.00
18509;BME280;9383;50.928;12.116;2022-10-22T04:48:39;98442.09;;;12.32;100.00
18509;BME280;9383;50.928;12.116;2022-10-22T04:51:08;98442.09;;;12.32;100.00
18509;BME280;9383;50.928;12.116;2022-10-22T04:53:36;98449.22;;;12.32;100.00
18509;BME280;9383;50.928;12.116;2022-10-22T04:56:09;98443.91;;;12.32;100.00
18509;BME280;9383;50.928;12.116;2022-10-22T04:58:37;98442.19;;;12.31;100.00
18509;BME280;9383;50.928;12.116;2022-10-22T05:01:15;98439.53;;;12.31;100.00
18509;BME280;9383;50.928;12.116;2022-10-22T05:03:42;98428.03;;;12.30;100.00
18509;BME280;9383;50.928;12.116;2022-10-22T05:06:09;98427.19;;;12.30;100.00
18509;BME280;9383;50.928;12.116;2022-10-22T05:08:36;98438.75;;;12.29;100.00
18509;BME280;9383;50.928;12.116;2022-10-22T05:11:22;98430.78;;;12.29;100.00
18509;BME280;9383;50.928;12.116;2022-10-22T05:13:49;98453.00;;;12.28;100.00
18509;BME280;9383;50.928;12.116;2022-10-22T05:16:16;98441.50;;;12.27;100.00
18509;BME280;9383;50.928;12.116;2022-10-22T05:18:43;98455.50;;;12.31;100.00
18509;BME280;9383;50.928;12.116;2022-10-22T05:21:13;98458.91;;;12.33;100.00
18509;BME280;9383;50.928;12.116;2022-10-22T05:23:43;98464.19;;;12.34;100.00
18509;BME280;9383;50.928;12.116;2022-10-22T05:26:11;98463.13;;;12.37;100.00
18509;BME280;9383;50.928;12.116;2022-10-22T05:28:39;98467.50;;;12.38;100.00
18509;BME280;9383;50.928;12.116;2022-10-22T05:31:07;98467.44;;;12.40;100.00
18509;BME280;9383;50.928;12.116;2022-10-22T05:33:34;98464.72;;;12.41;100.00
18509;BME280;9383;50.928;12.116;2022-10-22T05:36:03;98460.25;;;12.42;100.00
18509;BME280;9383;50.928;12.116;2022-10-22T05:38:31;98466.34;;;12.44;100.00
18509;BME280;9383;50.928;12.116;2022-10-22T05:41:09;98473.31;;;12.46;100.00
18509;BME280;9383;50.928;12.116;2022-10-22T05:43:36;98467.94;;;12.48;100.00
18509;BME280;9383;50.928;12.116;2022-10-22T05:46:09;98477.53;;;12.50;100.00
18509;BME280;9383;50.928;12.116;2022-10-22T05:48:36;98480.06;;;12.54;100.00
18509;BME280;9383;50.928;12.116;2022-10-22T05:51:04;98480.84;;;12.56;100.00
18509;BME280;9383;50.928;12.116;2022-10-22T05:53:36;98494.75;;;12.61;100.00
18509;BME280;9383;50.928;12.116;2022-10-22T05:56:11;98493.69;;;12.65;100.00
18509;BME280;9383;50.928;12.116;2022-10-22T05:58:39;98499.59;;;12.70;100.00
18509;BME280;9383;50.928;12.116;2022-10-22T06:03:38;98502.81;;;12.77;100.00
18509;BME280;9383;50.928;12.116;2022-10-22T06:08:48;98527.38;;;12.82;100.00
18509;BME280;9383;50.928;12.116;2022-10-22T06:11:16;98530.72;;;12.86;100.00
18509;BME280;9383;50.928;12.116;2022-10-22T06:13:45;98540.19;;;12.91;100.00
18509;BME280;9383;50.928;12.116;2022-10-22T06:16:11;98544.50;;;12.94;100.00
18509;BME280;9383;50.928;12.116;2022-10-22T06:18:38;98539.91;;;12.98;100.00
18509;BME280;9383;50.928;12.116;2022-10-22T06:21:10;98553.88;;;13.01;100.00
18509;BME280;9383;50.928;12.116;2022-10-22T06:23:38;98542.22;;;13.04;100.00
18509;BME280;9383;50.928;12.116;2022-10-22T06:26:06;98546.53;;;13.06;100.00
18509;BME280;9383;50.928;12.116;2022-10-22T06:28:33;98554.38;;;13.09;100.00
18509;BME280;9383;50.928;12.116;2022-10-22T06:31:01;98548.88;;;13.13;100.00
18509;BME280;9383;50.928;12.116;2022-10-22T06:33:30;98551.41;;;13.16;100.00
18509;BME280;9383;50.928;12.116;2022-10-22T06:36:05;98560.94;;;13.20;100.00
18509;BME280;9383;50.928;12.116;2022-10-22T06:38:32;98562.59;;;13.22;100.00
18509;BME280;9383;50.928;12.116;2022-10-22T06:41:06;98570.47;;;13.24;100.00
18509;BME280;9383;50.928;12.116;2022-10-22T06:43:33;98580.28;;;13.23;100.00
18509;BME280;9383;50.928;12.116;2022-10-22T06:46:04;98582.84;;;13.25;100.00
18509;BME280;9383;50.928;12.116;2022-10-22T06:48:32;98577.50;;;13.25;100.00
18509;BME280;9383;50.928;12.116;2022-10-22T06:51:05;98576.56;;;13.26;100.00
18509;BME280;9383;50.928;12.116;2022-10-22T06:53:33;98586.38;;;13.26;100.00
18509;BME280;9383;50.928;12.116;2022-10-22T06:56:05;98585.44;;;13.27;100.00
18509;BME280;9383;50.928;12.116;2022-10-22T06:58:32;98587.09;;;13.29;100.00
18509;BME280;9383;50.928;12.116;2022-10-22T07:01:10;98592.41;;;13.29;100.00
18509;BME280;9383;50.928;12.116;2022-10-22T07:03:38;98595.91;;;13.30;100.00
18509;BME280;9383;50.928;12.116;2022-10-22T07:06:07;98598.56;;;13.30;100.00
18509;BME280;9383;50.928;12.116;2022-10-22T07:08:34;98598.50;;;13.31;100.00
18509;BME280;9383;50.928;12.116;2022-10-22T07:13:41;98604.69;;;13.32;100.00
18509;BME280;9383;50.928;12.116;2022-10-22T07:16:08;98604.59;;;13.33;100.00
18509;BME280;9383;50.928;12.116;2022-10-22T07:18:35;98609.16;;;13.31;100.00
18509;BME280;9383;50.928;12.116;2022-10-22T07:21:02;98619.69;;;13.33;100.00
18509;BME280;9383;50.928;12.116;2022-10-22T07:23:30;98617.03;;;13.33;100.00
18509;BME280;9383;50.928;12.116;2022-10-22T07:25:56;98633.88;;;13.33;100.00
18509;BME280;9383;50.928;12.116;2022-10-22T07:28:23;98640.94;;;13.34;100.00
18509;BME280;9383;50.928;12.116;2022-10-22T07:30:50;98641.72;;;13.36;100.00
18509;BME280;9383;50.928;12.116;2022-10-22T07:33:16;98645.25;;;13.37;100.00
18509;BME280;9383;50.928;12.116;2022-10-22T07:35:43;98645.16;;;13.39;100.00
18509;BME280;9383;50.928;12.116;2022-10-22T07:38:09;98641.66;;;13.38;100.00
18509;BME280;9383;50.928;12.116;2022-10-22T07:40:36;98648.69;;;13.39;100.00
18509;BME280;9383;50.928;12.116;2022-10-22T07:43:03;98648.69;;;13.39;100.00
18509;BME280;9383;50.928;12.116;2022-10-22T07:45:29;98643.28;;;13.41;100.00
18509;BME280;9383;50.928;12.116;2022-10-22T07:47:56;98644.22;;;13.40;100.00
18509;BME280;9383;50.928;12.116;2022-10-22T07:50:24;98624.56;;;13.42;100.00
18509;BME280;9383;50.928;12.116;2022-10-22T07:52:51;98629.84;;;13.44;100.00
18509;BME280;9383;50.928;12.116;2022-10-22T07:55:18;98631.56;;;13.45;100.00
18509;BME280;9383;50.928;12.116;2022-10-22T07:57:44;98644.81;;;13.46;100.00
18509;BME280;9383;50.928;12.116;2022-10-22T08:00:11;98647.31;;;13.49;100.00
18509;BME280;9383;50.928;12.116;2022-10-22T08:02:38;98641.88;;;13.51;100.00
18509;BME280;9383;50.928;12.116;2022-10-22T08:05:05;98650.69;;;13.53;100.00
18509;BME280;9383;50.928;12.116;2022-10-22T08:07:32;98641.59;;;13.57;100.00
18509;BME280;9383;50.928;12.116;2022-10-22T08:09:59;98653.00;;;13.59;100.00
18509;BME280;9383;50.928;12.116;2022-10-22T08:12:25;98658.16;;;13.62;100.00
18509;BME280;9383;50.928;12.116;2022-10-22T08:14:52;98656.22;;;13.66;100.00
18509;BME280;9383;50.928;12.116;2022-10-22T08:17:18;98651.75;;;13.67;100.00
18509;BME280;9383;50.928;12.116;2022-10-22T08:19:45;98645.50;;;13.68;100.00
18509;BME280;9383;50.928;12.116;2022-10-22T08:22:14;98653.31;;;13.71;100.00
18509;BME280;9383;50.928;12.116;2022-10-22T08:24:41;98657.63;;;13.73;100.00
18509;BME280;9383;50.928;12.116;2022-10-22T08:27:07;98661.84;;;13.77;100.00
18509;BME280;9383;50.928;12.116;2022-10-22T08:29:34;98654.72;;;13.78;100.00
18509;BME280;9383;50.928;12.116;2022-10-22T08:32:00;98648.53;;;13.77;100.00
18509;BME280;9383;50.928;12.116;2022-10-22T08:34:30;98647.56;;;13.78;100.00
18509;BME280;9383;50.928;12.116;2022-10-22T08:36:56;98627.38;;;13.74;100.00
18509;BME280;9383;50.928;12.116;2022-10-22T08:39:23;98598.91;;;13.75;100.00
18509;BME280;9383;50.928;12.116;2022-10-22T08:48:11;98650.94;;;13.82;100.00
18509;BME280;9383;50.928;12.116;2022-10-22T08:50:46;98659.41;;;13.90;100.00
18509;BME280;9383;50.928;12.116;2022-10-22T08:53:20;98655.44;;;13.98;100.00
18509;BME280;9383;50.928;12.116;2022-10-22T08:55:48;98641.81;;;14.04;100.00
18509;BME280;9383;50.928;12.116;2022-10-22T09:01:26;98679.38;;;14.15;100.00
18509;BME280;9383;50.928;12.116;2022-10-22T09:03:59;98692.47;;;14.20;100.00
18509;BME280;9383;50.928;12.116;2022-10-22T09:06:32;98693.00;;;14.27;100.00
18509;BME280;9383;50.928;12.116;2022-10-22T09:09:00;98694.72;;;14.28;100.00
18509;BME280;9383;50.928;12.116;2022-10-22T09:11:34;98692.84;;;14.30;100.00
18509;BME280;9383;50.928;12.116;2022-10-22T09:14:02;98681.13;;;14.32;100.00
18509;BME280;9383;50.928;12.116;2022-10-22T09:27:41;98682.88;;;14.49;100.00
18509;BME280;9383;50.928;12.116;2022-10-22T09:30:20;98675.50;;;14.55;100.00
18509;BME280;9383;50.928;12.116;2022-10-22T09:35:47;98675.34;;;14.74;100.00
18509;BME280;9383;50.928;12.116;2022-10-22T09:38:22;98678.94;;;14.89;100.00
18509;BME280;9383;50.928;12.116;2022-10-22T09:40:53;98672.91;;;15.01;100.00
18509;BME280;9383;50.928;12.116;2022-10-22T09:43:20;98675.53;;;15.17;100.00
18509;BME280;9383;50.928;12.116;2022-10-22T09:45:48;98674.06;;;15.28;100.00
18509;BME280;9383;50.928;12.116;2022-10-22T09:48:26;98688.47;;;15.40;100.00
18509;BME280;9383;50.928;12.116;2022-10-22T09:53:41;98691.06;;;15.72;100.00
18509;BME280;9383;50.928;12.116;2022-10-22T09:56:17;98699.38;;;15.82;100.00
18509;BME280;9383;50.928;12.116;2022-10-22T09:58:59;98695.91;;;15.96;100.00
18509;BME280;9383;50.928;12.116;2022-10-22T10:01:27;98705.84;;;16.08;100.00
18509;BME280;9383;50.928;12.116;2022-10-22T10:04:01;98714.44;;;16.13;100.00
18509;BME280;9383;50.928;12.116;2022-10-22T10:06:32;98718.72;;;16.30;100.00
18509;BME280;9383;50.928;12.116;2022-10-22T10:08:59;98710.03;;;16.41;100.00
18509;BME280;9383;50.928;12.116;2022-10-22T10:12:04;98710.50;;;16.48;100.00
18509;BME280;9383;50.928;12.116;2022-10-22T10:14:36;98708.00;;;16.59;100.00
18509;BME280;9383;50.928;12.116;2022-10-22T10:17:23;98713.19;;;16.63;100.00
18509;BME280;9383;50.928;12.116;2022-10-22T10:20:09;98715.38;;;16.70;100.00
18509;BME280;9383;50.928;12.116;2022-10-22T10:22:41;98712.66;;;16.85;100.00
18509;BME280;9383;50.928;12.116;2022-10-22T10:25:41;98717.78;;;17.02;100.00
18509;BME280;9383;50.928;12.116;2022-10-22T10:28:31;98707.47;;;17.24;100.00
18509;BME280;9383;50.928;12.116;2022-10-22T10:31:29;98702.38;;;17.34;97.19
18509;BME280;9383;50.928;12.116;2022-10-22T10:34:23;98701.75;;;17.43;95.79
18509;BME280;9383;50.928;12.116;2022-10-22T10:37:23;98699.41;;;17.51;95.33
18509;BME280;9383;50.928;12.116;2022-10-22T10:39:56;98698.66;;;17.62;96.73
18509;BME280;9383;50.928;12.116;2022-10-22T10:42:40;98708.69;;;17.73;96.05
18509;BME280;9383;50.928;12.116;2022-10-22T10:45:25;98706.00;;;17.86;96.50
18509;BME280;9383;50.928;12.116;2022-10-22T10:58:48;98703.13;;;18.02;89.13
18509;BME280;9383;50.928;12.116;2022-10-22T11:06:39;98713.13;;;18.13;89.21
18509;BME280;9383;50.928;12.116;2022-10-22T11:09:27;98715.69;;;18.14;85.92
18509;BME280;9383;50.928;12.116;2022-10-22T11:11:58;98722.38;;;18.22;87.26
18509;BME280;9383;50.928;12.116;2022-10-22T11:14:34;98722.13;;;18.25;86.01
18509;BME280;9383;50.928;12.116;2022-10-22T11:17:17;98724.28;;;18.33;86.81
18509;BME280;9383;50.928;12.116;2022-10-22T11:19:55;98726.66;;;18.37;85.90
18509;BME280;9383;50.928;12.116;2022-10-22T11:22:32;98725.22;;;18.45;87.31
18509;BME280;9383;50.928;12.116;2022-10-22T11:30:15;98725.97;;;18.60;87.17
18509;BME280;9383;50.928;12.116;2022-10-22T11:33:03;98725.41;;;18.67;87.38
18509;BME280;9383;50.928;12.116;2022-10-22T11:35:39;98717.13;;;18.70;83.81
18509;BME280;9383;50.928;12.116;2022-10-22T11:38:10;98717.13;;;18.70;82.33
18509;BME280;9383;50.928;12.116;2022-10-22T11:40:49;98718.41;;;18.78;84.02
18509;BME280;9383;50.928;12.116;2022-10-22T11:43:34;98718.41;;;18.78;79.51
18509;BME280;9383;50.928;12.116;2022-10-22T11:48:43;98723.13;;;18.87;79.54
18509;BME280;9383;50.928;12.116;2022-10-22T11:51:36;98721.41;;;18.86;77.01
18509;BME280;9383;50.928;12.116;2022-10-22T11:54:31;98721.81;;;18.80;74.99
18509;BME280;9383;50.928;12.116;2022-10-22T11:57:21;98727.09;;;18.81;76.96
18509;BME280;9383;50.928;12.116;2022-10-22T11:59:55;98733.84;;;18.87;76.58
18509;BME280;9383;50.928;12.116;2022-10-22T12:03:02;98735.34;;;18.91;76.62
18509;BME280;9383;50.928;12.116;2022-10-22T12:05:33;98731.25;;;18.98;77.35
18509;BME280;9383;50.928;12.116;2022-10-22T12:08:02;98729.31;;;19.01;77.04
18509;BME280;9383;50.928;12.116;2022-10-22T12:11:04;98726.50;;;19.02;76.96
18509;BME280;9383;50.928;12.116;2022-10-22T12:13:54;98725.84;;;19.11;78.41
18509;BME280;9383;50.928;12.116;2022-10-22T12:16:36;98727.94;;;19.19;78.44
18509;BME280;9383;50.928;12.116;2022-10-22T12:21:37;98726.06;;;19.33;79.59
18509;BME280;9383;50.928;12.116;2022-10-22T12:24:08;98724.00;;;19.36;79.54
18509;BME280;9383;50.928;12.116;2022-10-22T12:26:38;98731.00;;;19.39;79.83
18509;BME280;9383;50.928;12.116;2022-10-22T12:29:10;98723.03;;;19.37;79.59
18509;BME280;9383;50.928;12.116;2022-10-22T12:31:38;98725.84;;;19.36;79.01
18509;BME280;9383;50.928;12.116;2022-10-22T12:34:05;98727.66;;;19.35;79.14
18509;BME280;9383;50.928;12.116;2022-10-22T12:36:34;98716.91;;;19.35;78.62
18509;BME280;9383;50.928;12.116;2022-10-22T12:39:02;98716.19;;;19.33;77.57
18509;BME280;9383;50.928;12.116;2022-10-22T12:41:34;98718.75;;;19.35;78.46
18509;BME280;9383;50.928;12.116;2022-10-22T12:44:02;98713.16;;;19.38;79.21
18509;BME280;9383;50.928;12.116;2022-10-22T12:46:33;98713.00;;;19.39;79.21
18509;BME280;9383;50.928;12.116;2022-10-22T12:49:12;98711.31;;;19.38;78.86
18509;BME280;9383;50.928;12.116;2022-10-22T12:51:40;98716.09;;;19.35;78.42
18509;BME280;9383;50.928;12.116;2022-10-22T12:54:12;98722.78;;;19.29;76.26
18509;BME280;9383;50.928;12.116;2022-10-22T12:56:41;98717.97;;;19.21;75.05
18509;BME280;9383;50.928;12.116;2022-10-22T12:59:28;98724.28;;;19.20;75.74
18509;BME280;9383;50.928;12.116;2022-10-22T13:01:58;98668.41;;;18.88;74.38
18509;BME280;9383;50.928;12.116;2022-10-22T13:04:36;98719.38;;;19.14;74.15
18509;BME280;9383;50.928;12.116;2022-10-22T13:09:42;98720.59;;;19.10;74.99
18509;BME280;9383;50.928;12.116;2022-10-22T13:12:10;98720.81;;;19.07;74.38
18509;BME280;9383;50.928;12.116;2022-10-22T13:14:45;98716.41;;;19.06;74.22
18509;BME280;9383;50.928;12.116;2022-10-22T13:17:35;98722.00;;;19.03;74.05
18509;BME280;9383;50.928;12.116;2022-10-22T13:20:18;98720.59;;;18.97;73.11
18509;BME280;9383;50.928;12.116;2022-10-22T13:22:59;98722.44;;;18.96;73.92
18509;BME280;9383;50.928;12.116;2022-10-22T13:28:00;98734.50;;;18.91;74.20
18509;BME280;9383;50.928;12.116;2022-10-22T13:33:04;98733.94;;;18.86;75.25
18509;BME280;9383;50.928;12.116;2022-10-22T13:35:33;98740.41;;;18.83;75.54
18509;BME280;9383;50.928;12.116;2022-10-22T13:38:02;98736.22;;;18.79;75.08
18509;BME280;9383;50.928;12.116;2022-10-22T13:40:28;98733.53;;;18.79;75.06
18509;BME280;9383;50.928;12.116;2022-10-22T13:42:55;98738.16;;;18.77;75.15
18509;BME280;9383;50.928;12.116;2022-10-22T13:45:22;98735.81;;;18.72;74.82
18509;BME280;9383;50.928;12.116;2022-10-22T13:47:52;98732.38;;;18.70;74.66
18509;BME280;9383;50.928;12.116;2022-10-22T13:50:20;98737.13;;;18.66;74.76
18509;BME280;9383;50.928;12.116;2022-10-22T13:52:56;98737.34;;;18.63;74.34
18509;BME280;9383;50.928;12.116;2022-10-22T13:55:25;98741.22;;;18.59;73.45
18509;BME280;9383;50.928;12.116;2022-10-22T13:58:10;98741.41;;;18.56;73.19
18509;BME280;9383;50.928;12.116;2022-10-22T14:00:39;98740.91;;;18.51;73.71
18509;BME280;9383;50.928;12.116;2022-10-22T14:03:10;98726.97;;;18.46;73.27
18509;BME280;9383;50.928;12.116;2022-10-22T14:05:37;98731.56;;;18.44;73.85
18509;BME280;9383;50.928;12.116;2022-10-22T14:08:09;98734.38;;;18.42;74.45
18509;BME280;9383;50.928;12.116;2022-10-22T14:10:37;98737.38;;;18.37;74.25
18509;BME280;9383;50.928;12.116;2022-10-22T14:13:06;98743.59;;;18.38;74.33
18509;BME280;9383;50.928;12.116;2022-10-22T14:15:33;98743.72;;;18.36;74.91
18509;BME280;9383;50.928;12.116;2022-10-22T14:18:00;98742.84;;;18.36;75.47
18509;BME280;9383;50.928;12.116;2022-10-22T14:20:29;98744.78;;;18.34;75.49
18509;BME280;9383;50.928;12.116;2022-10-22T14:23:01;98738.66;;;18.32;75.13
18509;BME280;9383;50.928;12.116;2022-10-22T14:25:28;98742.19;;;18.32;75.89
18509;BME280;9383;50.928;12.116;2022-10-22T14:27:56;98744.13;;;18.30;76.40
18509;BME280;9383;50.928;12.116;2022-10-22T14:30:24;98743.38;;;18.28;76.56
18509;BME280;9383;50.928;12.116;2022-10-22T14:32:51;98748.97;;;18.25;76.50
18509;BME280;9383;50.928;12.116;2022-10-22T14:35:20;98751.75;;;18.23;76.56
18509;BME280;9383;50.928;12.116;2022-10-22T14:37:47;98751.97;;;18.20;76.50
18509;BME280;9383;50.928;12.116;2022-10-22T14:40:16;98755.94;;;18.14;76.76
18509;BME280;9383;50.928;12.116;2022-10-22T14:42:45;98757.97;;;18.11;76.74
18509;BME280;9383;50.928;12.116;2022-10-22T14:45:21;98759.44;;;18.02;75.92